Time;durP1;ratioP1;P1;durP2;ratioP2;P2;SDS_P1;SDS_P2;PMS_P1;PMS_P2;Temp;Humidity;BMP_temperature;BMP_pressure;BME280_temperature;BME280_humidity;BME280_pressure;Samples;Min_cycle;Max_cycle;Signal;HPM_P1;HPM_P2
2022/11/09 00:00:51;;;;;;;;;;;;;;;8.42;100.00;100938.34;5590306;31;34340;-69
2022/11/09 00:04:01;;;;;;;;;;;;;;;8.37;100.00;100935.28;5590115;31;34897;-69
2022/11/09 00:07:10;;;;;;;;;;;;;;;8.55;100.00;100936.22;5590379;31;34283;-69
2022/11/09 00:10:17;;;;;;;;;;;;;;;8.55;100.00;100933.59;5590012;31;34954;-69
2022/11/09 00:13:24;;;;;;;;;;;;;;;8.61;100.00;100941.81;5590184;31;34997;-69
2022/11/09 00:16:30;;;;;;;;;;;;;;;8.55;100.00;100930.94;5590323;31;34179;-69
2022/11/09 00:19:36;;;;;;;;;;;;;;;8.51;100.00;100940.97;5590075;31;34724;-69
2022/11/09 00:22:46;;;;;;;;;;;;;;;8.58;100.00;100935.94;5590088;31;34193;-69
2022/11/09 00:25:54;;;;;;;;;;;;;;;8.44;100.00;100941.66;5589888;31;34375;-69
2022/11/09 00:29:00;;;;;;;;;;;;;;;8.54;100.00;100931.91;5589958;31;34302;-69
2022/11/09 00:32:09;;;;;;;;;;;;;;;8.57;100.00;100935.09;5590220;31;34869;-69
2022/11/09 00:35:15;;;;;;;;;;;;;;;8.56;100.00;100935.25;5589809;31;34390;-69
2022/11/09 00:38:22;;;;;;;;;;;;;;;8.51;100.00;100946.25;5589988;31;34251;-69
2022/11/09 00:41:28;;;;;;;;;;;;;;;8.49;100.00;100932.34;5589845;31;34221;-69
2022/11/09 00:44:34;;;;;;;;;;;;;;;8.47;100.00;100941.41;5575361;31;34756;-69
2022/11/09 00:47:40;;;;;;;;;;;;;;;8.51;100.00;100930.41;5589443;31;34284;-69
2022/11/09 00:50:48;;;;;;;;;;;;;;;8.50;100.00;100923.44;5589789;31;34835;-69
2022/11/09 00:54:00;;;;;;;;;;;;;;;8.51;100.00;100926.91;5575692;31;35380;-69
2022/11/09 00:57:08;;;;;;;;;;;;;;;8.44;100.00;100915.22;5562883;31;35460;-69
2022/11/09 01:00:19;;;;;;;;;;;;;;;8.46;100.00;100919.41;5589572;31;34222;-69
2022/11/09 01:03:25;;;;;;;;;;;;;;;8.42;100.00;100928.59;5589496;31;34411;-69
2022/11/09 01:06:32;;;;;;;;;;;;;;;8.53;100.00;100917.00;5575457;31;34231;-69
2022/11/09 01:09:39;;;;;;;;;;;;;;;8.52;100.00;100924.13;5589585;31;34832;-69
2022/11/09 01:12:46;;;;;;;;;;;;;;;8.40;100.00;100922.59;5562874;31;34163;-69
2022/11/09 01:15:52;;;;;;;;;;;;;;;8.40;100.00;100922.59;5589033;31;34297;-69
2022/11/09 01:19:00;;;;;;;;;;;;;;;8.36;100.00;100918.59;5589215;31;34770;-69
2022/11/09 01:22:07;;;;;;;;;;;;;;;8.44;100.00;100920.50;5589234;31;34770;-69
2022/11/09 01:25:14;;;;;;;;;;;;;;;8.38;100.00;100921.06;5589165;31;35145;-69
2022/11/09 01:28:20;;;;;;;;;;;;;;;8.42;100.00;100910.09;5588853;31;34438;-70
2022/11/09 01:31:28;;;;;;;;;;;;;;;8.42;100.00;100912.75;5589067;31;34319;-69
2022/11/09 01:34:36;;;;;;;;;;;;;;;8.37;100.00;100908.84;5589024;31;34285;-69
2022/11/09 01:37:42;;;;;;;;;;;;;;;8.36;100.00;100907.16;5589073;31;34108;-69
2022/11/09 01:40:52;;;;;;;;;;;;;;;8.35;100.00;100908.97;5574796;31;34204;-69
2022/11/09 01:44:05;;;;;;;;;;;;;;;8.31;100.00;100906.75;5588891;31;34194;-69
2022/11/09 01:47:18;;;;;;;;;;;;;;;8.34;100.00;100907.31;5588819;31;34848;-69
2022/11/09 01:50:34;;;;;;;;;;;;;;;8.29;100.00;100891.88;5588841;31;34253;-69
2022/11/09 01:53:47;;;;;;;;;;;;;;;8.19;100.00;100893.63;5588707;31;34867;-69
2022/11/09 01:56:54;;;;;;;;;;;;;;;8.19;100.00;100898.94;5588644;31;34806;-69
2022/11/09 02:00:03;;;;;;;;;;;;;;;8.15;100.00;100891.41;5577220;31;35479;-69
2022/11/09 02:03:25;;;;;;;;;;;;;;;8.14;100.00;100885.28;5591348;31;34912;-69
2022/11/09 02:06:32;;;;;;;;;;;;;;;8.03;100.00;100892.56;5591097;31;34894;-69
2022/11/09 02:09:53;;;;;;;;;;;;;;;8.13;100.00;100888.91;5591127;31;34617;-69
2022/11/09 02:13:02;;;;;;;;;;;;;;;8.20;100.00;100876.81;5591172;31;34269;-69
2022/11/09 02:16:14;;;;;;;;;;;;;;;8.18;100.00;100891.16;5591220;31;34924;-69
2022/11/09 02:19:24;;;;;;;;;;;;;;;8.10;100.00;100889.19;5591070;31;34902;-69
2022/11/09 02:22:33;;;;;;;;;;;;;;;8.14;100.00;100882.66;5591100;31;34619;-69
2022/11/09 02:25:42;;;;;;;;;;;;;;;8.12;100.00;100883.78;5591095;31;34567;-69
2022/11/09 02:28:51;;;;;;;;;;;;;;;8.03;100.00;100876.69;5591155;31;34264;-69
2022/11/09 02:32:00;;;;;;;;;;;;;;;8.05;100.00;100877.37;5590905;31;34517;-69
2022/11/09 02:35:06;;;;;;;;;;;;;;;8.02;100.00;100880.31;5577151;31;34202;-69
2022/11/09 02:38:14;;;;;;;;;;;;;;;7.99;100.00;100877.97;5591069;31;34300;-69
2022/11/09 02:41:21;;;;;;;;;;;;;;;7.99;100.00;100873.47;5591146;31;34877;-69
2022/11/09 02:44:27;;;;;;;;;;;;;;;7.98;100.00;100879.75;5577271;31;34285;-69
2022/11/09 02:47:37;;;;;;;;;;;;;;;7.92;100.00;100877.66;5591142;31;34415;-69
2022/11/09 02:50:44;;;;;;;;;;;;;;;7.94;100.00;100867.78;5590793;31;34867;-69
2022/11/09 02:53:54;;;;;;;;;;;;;;;7.97;100.00;100872.81;5590805;31;34190;-69
2022/11/09 02:57:02;;;;;;;;;;;;;;;7.92;100.00;100876.81;5590769;31;34269;-69
2022/11/09 03:00:08;;;;;;;;;;;;;;;7.95;100.00;100868.59;5590679;31;34083;-69
2022/11/09 03:03:16;;;;;;;;;;;;;;;7.91;100.00;100873.34;5590986;31;35151;-69
2022/11/09 03:06:36;;;;;;;;;;;;;;;7.86;100.00;100878.22;5590577;31;34930;-69
2022/11/09 03:09:45;;;;;;;;;;;;;;;7.87;100.00;100869.31;5590115;31;34237;-69
2022/11/09 03:13:06;;;;;;;;;;;;;;;7.86;100.00;100875.56;5549696;32;34747;-70
2022/11/09 03:16:14;;;;;;;;;;;;;;;7.87;100.00;100882.53;5549516;32;34142;-68
2022/11/09 03:19:22;;;;;;;;;;;;;;;7.80;100.00;100876.09;5549619;32;34186;-68
2022/11/09 03:22:29;;;;;;;;;;;;;;;7.81;100.00;100893.63;5549641;32;34909;-68
2022/11/09 03:25:37;;;;;;;;;;;;;;;7.84;100.00;100883.63;5549598;32;34773;-69
2022/11/09 03:28:46;;;;;;;;;;;;;;;7.89;100.00;100887.69;5549547;32;34171;-68
2022/11/09 03:31:54;;;;;;;;;;;;;;;7.90;100.00;100882.25;5536332;32;35195;-68
2022/11/09 03:35:03;;;;;;;;;;;;;;;7.86;100.00;100875.56;5549208;32;34428;-69
2022/11/09 03:38:10;;;;;;;;;;;;;;;7.80;100.00;100881.37;5549346;32;33844;-68
2022/11/09 03:41:18;;;;;;;;;;;;;;;7.85;100.00;100874.72;5549589;32;34384;-69
2022/11/09 03:44:23;;;;;;;;;;;;;;;7.95;100.00;100871.25;5549385;32;34880;-69
2022/11/09 03:47:29;;;;;;;;;;;;;;;7.84;100.00;100877.53;5564717;31;35380;-68
2022/11/09 03:50:39;;;;;;;;;;;;;;;7.84;100.00;100877.53;5590235;31;34317;-68
2022/11/09 03:53:47;;;;;;;;;;;;;;;7.84;100.00;100874.88;5590289;31;34990;-68
2022/11/09 03:56:54;;;;;;;;;;;;;;;7.71;100.00;100884.87;5590347;31;35130;-68
2022/11/09 04:00:03;;;;;;;;;;;;;;;7.85;100.00;100887.94;5590244;31;34268;-68
2022/11/09 04:03:15;;;;;;;;;;;;;;;7.89;100.00;100874.47;5577617;31;34834;-68
2022/11/09 04:06:22;;;;;;;;;;;;;;;7.86;100.00;100873.75;5557776;31;1012987;-69
2022/11/09 04:09:29;;;;;;;;;;;;;;;7.88;100.00;100878.91;5590001;31;34899;-69
2022/11/09 04:12:35;;;;;;;;;;;;;;;7.90;100.00;100874.31;5590089;31;34949;-69
2022/11/09 04:15:43;;;;;;;;;;;;;;;7.84;100.00;100869.59;5590163;31;34603;-68
2022/11/09 04:18:52;;;;;;;;;;;;;;;7.81;100.00;100864.56;5590354;31;34485;-68
2022/11/09 04:21:58;;;;;;;;;;;;;;;7.89;100.00;100862.06;5588813;31;34264;-67
2022/11/09 04:25:07;;;;;;;;;;;;;;;7.90;100.00;100858.47;5590408;31;33997;-68
2022/11/09 04:28:16;;;;;;;;;;;;;;;7.79;100.00;100863.91;5589970;31;34217;-68
2022/11/09 04:31:27;;;;;;;;;;;;;;;7.71;100.00;100859.28;5590035;31;34862;-68
2022/11/09 04:34:34;;;;;;;;;;;;;;;7.84;100.00;100859.03;5576037;31;34625;-68
2022/11/09 04:37:40;;;;;;;;;;;;;;;7.96;100.00;100857.91;5590025;31;35103;-68
2022/11/09 04:40:48;;;;;;;;;;;;;;;7.78;100.00;100852.50;5589604;31;34909;-68
2022/11/09 04:43:55;;;;;;;;;;;;;;;7.81;100.00;100852.22;5589802;31;34805;-68
2022/11/09 04:47:03;;;;;;;;;;;;;;;7.87;100.00;100853.47;5589664;31;34109;-68
2022/11/09 04:50:10;;;;;;;;;;;;;;;7.83;100.00;100860.00;5589486;31;34931;-68
2022/11/09 04:53:18;;;;;;;;;;;;;;;7.93;100.00;100862.66;5575939;31;33014;-68
2022/11/09 04:56:26;;;;;;;;;;;;;;;7.91;100.00;100867.22;5589638;31;34342;-68
2022/11/09 04:59:32;;;;;;;;;;;;;;;7.84;100.00;100870.41;5576490;31;34808;-69
2022/11/09 05:02:37;;;;;;;;;;;;;;;7.81;100.00;100869.84;5589404;31;34600;-69
2022/11/09 05:05:45;;;;;;;;;;;;;;;7.81;100.00;100865.41;5589534;31;34183;-69
2022/11/09 05:08:54;;;;;;;;;;;;;;;7.77;100.00;100866.66;5588964;31;35144;-69
2022/11/09 05:12:00;;;;;;;;;;;;;;;7.73;100.00;100869.72;5589320;31;35127;-70
2022/11/09 05:15:06;;;;;;;;;;;;;;;7.84;100.00;100870.41;5589316;31;34759;-70
2022/11/09 05:18:12;;;;;;;;;;;;;;;7.85;100.00;100871.25;5589308;31;34475;-69
2022/11/09 05:21:17;;;;;;;;;;;;;;;7.63;100.00;100872.34;5589140;31;34678;-69
2022/11/09 05:24:23;;;;;;;;;;;;;;;7.72;100.00;100868.88;5589195;31;34814;-69
2022/11/09 05:27:29;;;;;;;;;;;;;;;7.75;100.00;100871.25;5589571;31;34698;-69
2022/11/09 05:30:33;;;;;;;;;;;;;;;7.73;100.00;100869.72;5575239;31;34150;-69
2022/11/09 05:33:40;;;;;;;;;;;;;;;7.81;100.00;100873.34;5591364;31;34674;-70
2022/11/09 05:36:48;;;;;;;;;;;;;;;7.68;100.00;100877.22;5577554;31;34064;-70
2022/11/09 05:39:56;;;;;;;;;;;;;;;7.81;100.00;100867.22;5591425;31;35052;-70
2022/11/09 05:43:01;;;;;;;;;;;;;;;7.69;100.00;100869.19;5577389;31;33571;-70
2022/11/09 05:46:08;;;;;;;;;;;;;;;7.63;100.00;100864.44;5591388;31;34814;-69
2022/11/09 05:49:15;;;;;;;;;;;;;;;7.56;100.00;100871.22;5591304;31;34248;-70
2022/11/09 05:52:20;;;;;;;;;;;;;;;7.71;100.00;100872.50;5590889;31;34659;-70
2022/11/09 05:55:25;;;;;;;;;;;;;;;7.80;100.00;100876.94;5590900;31;35104;-69
2022/11/09 05:58:35;;;;;;;;;;;;;;;7.86;100.00;100880.84;5576922;31;35636;-70
2022/11/09 06:01:43;;;;;;;;;;;;;;;7.87;100.00;100878.09;5591059;31;34384;-70
2022/11/09 06:04:48;;;;;;;;;;;;;;;7.87;100.00;100885.16;5591023;31;34209;-69
2022/11/09 06:07:52;;;;;;;;;;;;;;;7.79;100.00;100885.03;5577447;31;34890;-69
2022/11/09 06:10:59;;;;;;;;;;;;;;;7.82;100.00;100888.22;5590811;31;35124;-69
2022/11/09 06:14:03;;;;;;;;;;;;;;;7.81;100.00;100896.28;5590896;31;34111;-69
2022/11/09 06:17:09;;;;;;;;;;;;;;;7.82;100.00;100890.87;5590452;31;34713;-69
2022/11/09 06:20:12;;;;;;;;;;;;;;;7.80;100.00;100889.31;5590983;31;34295;-69
2022/11/09 06:23:16;;;;;;;;;;;;;;;7.86;100.00;100886.97;5576974;31;34239;-69
2022/11/09 06:26:20;;;;;;;;;;;;;;;7.74;100.00;100888.09;5590545;31;34291;-71
2022/11/09 06:29:23;;;;;;;;;;;;;;;7.82;100.00;100890.03;5590816;31;34837;-70
2022/11/09 06:32:27;;;;;;;;;;;;;;;7.68;100.00;100901.00;5590799;31;34365;-69
2022/11/09 06:35:31;;;;;;;;;;;;;;;7.80;100.00;100910.44;5576861;31;34300;-69
2022/11/09 06:38:36;;;;;;;;;;;;;;;7.79;100.00;100900.88;5590449;31;34158;-69
2022/11/09 06:41:41;;;;;;;;;;;;;;;7.76;100.00;100901.13;5563861;31;35352;-69
2022/11/09 06:44:49;;;;;;;;;;;;;;;7.70;100.00;100901.66;5575867;31;33462;-69
2022/11/09 06:47:56;;;;;;;;;;;;;;;7.60;100.00;100899.00;5576466;31;34164;-69
2022/11/09 06:50:59;;;;;;;;;;;;;;;7.55;100.00;100903.88;5590428;31;34707;-70
2022/11/09 06:54:02;;;;;;;;;;;;;;;7.58;100.00;100908.06;5575923;31;34738;-70
2022/11/09 06:57:05;;;;;;;;;;;;;;;7.47;100.00;100901.06;5590371;31;34950;-69
2022/11/09 07:00:09;;;;;;;;;;;;;;;7.58;100.00;100908.91;5576414;31;34721;-70
2022/11/09 07:03:12;;;;;;;;;;;;;;;7.68;100.00;100895.72;5576641;31;34915;-70
2022/11/09 07:06:15;;;;;;;;;;;;;;;7.70;100.00;100902.50;5590027;31;34934;-69
2022/11/09 07:09:17;;;;;;;;;;;;;;;7.84;100.00;100903.94;5590420;31;34845;-70
2022/11/09 07:12:21;;;;;;;;;;;;;;;7.86;100.00;100896.69;5576213;31;35014;-70
2022/11/09 07:15:23;;;;;;;;;;;;;;;7.84;100.00;100898.66;5576376;31;34223;-70
2022/11/09 07:18:26;;;;;;;;;;;;;;;7.92;100.00;100901.44;5590468;31;34372;-70
2022/11/09 07:21:28;;;;;;;;;;;;;;;8.02;100.00;100904.09;5590135;31;34597;-70
2022/11/09 07:24:31;;;;;;;;;;;;;;;8.03;100.00;100901.31;5590258;31;33980;-70
2022/11/09 07:27:34;;;;;;;;;;;;;;;8.12;100.00;100897.00;5576285;31;34132;-70
2022/11/09 07:30:37;;;;;;;;;;;;;;;8.11;100.00;100898.81;5575777;31;34880;-70
2022/11/09 07:33:40;;;;;;;;;;;;;;;8.19;100.00;100896.28;5590088;31;34902;-69
2022/11/09 07:36:43;;;;;;;;;;;;;;;8.35;100.00;100897.56;5589959;31;34239;-69
2022/11/09 07:39:46;;;;;;;;;;;;;;;8.52;100.00;100896.88;5575710;31;33155;-70
2022/11/09 07:42:48;;;;;;;;;;;;;;;8.63;100.00;100892.22;5590219;31;35051;-70
2022/11/09 07:45:51;;;;;;;;;;;;;;;8.87;100.00;100894.37;5576376;31;33937;-70
2022/11/09 07:48:54;;;;;;;;;;;;;;;8.93;100.00;100891.16;5590174;31;34234;-71
2022/11/09 07:51:58;;;;;;;;;;;;;;;8.99;100.00;100887.13;5576545;31;34310;-70
2022/11/09 07:55:01;;;;;;;;;;;;;;;8.75;100.00;100890.25;5576173;31;34202;-70
2022/11/09 07:58:08;;;;;;;;;;;;;;;8.69;100.00;100891.66;5575724;31;33604;-71
2022/11/09 08:01:11;;;;;;;;;;;;;;;8.75;100.00;100902.66;5576105;31;32811;-72
2022/11/09 08:04:14;;;;;;;;;;;;;;;8.68;100.00;100899.72;5590091;31;34196;-71
2022/11/09 08:07:17;;;;;;;;;;;;;;;8.80;100.00;100900.41;5590092;31;34256;-71
2022/11/09 08:10:21;;;;;;;;;;;;;;;8.79;100.00;100888.16;5575996;31;35190;-71
2022/11/09 08:13:23;;;;;;;;;;;;;;;8.73;100.00;100886.91;5576050;31;35476;-71
2022/11/09 08:16:26;;;;;;;;;;;;;;;8.78;100.00;100886.47;5589929;31;34840;-71
2022/11/09 08:19:28;;;;;;;;;;;;;;;8.82;100.00;100883.41;5589955;31;34702;-71
2022/11/09 08:22:31;;;;;;;;;;;;;;;8.87;100.00;100891.75;5575891;31;34804;-71
2022/11/09 08:25:34;;;;;;;;;;;;;;;8.92;100.00;100883.38;5589943;31;34205;-71
2022/11/09 08:28:37;;;;;;;;;;;;;;;8.88;100.00;100877.53;5589798;31;34217;-71
2022/11/09 08:31:39;;;;;;;;;;;;;;;8.93;100.00;100882.41;5590203;31;34318;-71
2022/11/09 08:34:45;;;;;;;;;;;;;;;8.93;100.00;100883.22;5590103;31;34706;-71
2022/11/09 08:37:49;;;;;;;;;;;;;;;9.09;100.00;100880.81;5575510;31;34659;-71
2022/11/09 08:40:55;;;;;;;;;;;;;;;9.11;100.00;100885.94;5575853;31;33799;-71
2022/11/09 08:43:58;;;;;;;;;;;;;;;8.91;100.00;100879.88;5589653;31;35048;-71
2022/11/09 08:47:01;;;;;;;;;;;;;;;8.75;100.00;100871.75;5589535;31;34341;-71
2022/11/09 08:50:04;;;;;;;;;;;;;;;8.98;100.00;100873.06;5590342;31;34537;-69
2022/11/09 08:53:08;;;;;;;;;;;;;;;9.07;100.00;100879.28;5589429;31;34280;-70
2022/11/09 08:56:11;;;;;;;;;;;;;;;8.99;100.00;100881.81;5575380;31;34697;-70
2022/11/09 08:59:14;;;;;;;;;;;;;;;8.97;100.00;100878.47;5589375;31;34946;-70
2022/11/09 09:02:17;;;;;;;;;;;;;;;8.79;100.00;100882.88;5575663;31;34947;-70
2022/11/09 09:05:20;;;;;;;;;;;;;;;8.93;100.00;100877.94;5589314;31;34240;-70
2022/11/09 09:08:24;;;;;;;;;;;;;;;8.87;100.00;100882.97;5561933;31;35765;-70
2022/11/09 09:11:26;;;;;;;;;;;;;;;8.83;100.00;100877.13;5575143;31;35009;-71
2022/11/09 09:14:29;;;;;;;;;;;;;;;8.90;100.00;100883.53;5588984;31;34856;-71
2022/11/09 09:17:34;;;;;;;;;;;;;;;8.95;100.00;100883.09;5574999;31;33037;-69
2022/11/09 09:20:37;;;;;;;;;;;;;;;9.05;100.00;100878.59;5589032;31;34893;-71
2022/11/09 09:23:40;;;;;;;;;;;;;;;9.13;100.00;100884.81;5589343;31;34685;-71
2022/11/09 09:26:45;;;;;;;;;;;;;;;8.99;100.00;100887.94;5588659;31;34309;-71
2022/11/09 09:29:48;;;;;;;;;;;;;;;9.15;100.00;100884.66;5575202;31;34396;-70
2022/11/09 09:32:51;;;;;;;;;;;;;;;9.05;100.00;100884.69;5574943;31;34344;-70
2022/11/09 09:35:55;;;;;;;;;;;;;;;9.04;100.00;100887.50;5588679;31;34246;-70
2022/11/09 09:38:59;;;;;;;;;;;;;;;9.18;100.00;100884.37;5588761;31;34760;-70
2022/11/09 09:42:06;;;;;;;;;;;;;;;9.28;100.00;100884.34;5588313;31;34622;-70
2022/11/09 09:45:20;;;;;;;;;;;;;;;9.35;100.00;100877.47;5574791;31;34894;-70
2022/11/09 09:48:30;;;;;;;;;;;;;;;9.21;100.00;100865.56;5588383;31;34449;-71
2022/11/09 09:51:47;;;;;;;;;;;;;;;9.42;100.00;100870.59;5588400;31;34843;-71
2022/11/09 09:55:00;;;;;;;;;;;;;;;9.54;100.00;100867.59;5574443;31;32683;-70
2022/11/09 09:58:05;;;;;;;;;;;;;;;9.50;100.00;100862.75;5588301;31;33647;-71
2022/11/09 10:01:14;;;;;;;;;;;;;;;9.55;100.00;100860.47;5588018;31;34308;-71
2022/11/09 10:04:18;;;;;;;;;;;;;;;9.63;100.00;100857.94;5588576;31;34412;-71
2022/11/09 10:07:56;;;;;;;;;;;;;;;9.70;100.00;100853.69;5574422;31;34803;-71
2022/11/09 10:11:13;;;;;;;;;;;;;;;9.62;100.00;100850.97;5508464;32;35034;-70
2022/11/09 10:14:35;;;;;;;;;;;;;;;9.66;100.00;100843.53;5508819;32;34839;-71
2022/11/09 10:18:00;;;;;;;;;;;;;;;9.82;100.00;100852.50;5495346;32;35225;-70
2022/11/09 10:21:03;;;;;;;;;;;;;;;9.67;100.00;100843.41;5498705;32;34979;-70
2022/11/09 10:24:09;;;;;;;;;;;;;;;9.46;100.00;100845.47;5498565;32;34344;-70
2022/11/09 10:27:25;;;;;;;;;;;;;;;9.50;100.00;100842.38;5510934;32;34346;-70
2022/11/09 10:30:29;;;;;;;;;;;;;;;9.64;100.00;100838.38;5510824;32;34191;-70
2022/11/09 10:33:32;;;;;;;;;;;;;;;9.67;100.00;100839.91;5498394;32;34447;-70
2022/11/09 10:36:49;;;;;;;;;;;;;;;9.76;100.00;100844.31;5510880;32;33825;-70
2022/11/09 10:40:21;;;;;;;;;;;;;;;9.79;100.00;100836.03;5498160;32;35170;-70
2022/11/09 10:43:42;;;;;;;;;;;;;;;9.52;100.00;100829.00;5496867;31;34235;-69
2022/11/09 10:47:06;;;;;;;;;;;;;;;9.79;100.00;100823.63;5579693;31;34940;-70
2022/11/09 10:50:46;;;;;;;;;;;;;;;9.75;100.00;100818.78;5576921;31;34142;-71
2022/11/09 10:54:15;;;;;;;;;;;;;;;9.71;100.00;100817.44;5590752;31;34782;-71
2022/11/09 10:57:48;;;;;;;;;;;;;;;9.71;100.00;100825.38;5590660;31;34953;-70
2022/11/09 11:01:14;;;;;;;;;;;;;;;9.72;100.00;100813.81;5590421;31;34096;-70
2022/11/09 11:04:36;;;;;;;;;;;;;;;9.76;100.00;100810.69;5576325;31;37284;-70
2022/11/09 11:07:57;;;;;;;;;;;;;;;9.55;100.00;100811.00;5590642;31;34842;-71
2022/11/09 11:11:21;;;;;;;;;;;;;;;9.63;100.00;100810.25;5590225;31;34721;-70
2022/11/09 11:15:00;;;;;;;;;;;;;;;9.66;100.00;100812.59;5576709;31;34688;-70
2022/11/09 11:18:23;;;;;;;;;;;;;;;9.64;100.00;100801.28;5576824;31;34222;-71
2022/11/09 11:21:44;;;;;;;;;;;;;;;9.84;100.00;100805.47;5590583;31;34291;-70
2022/11/09 11:25:19;;;;;;;;;;;;;;;9.89;100.00;100800.53;5578466;31;34801;-70
2022/11/09 11:28:43;;;;;;;;;;;;;;;9.84;100.00;100796.66;5590178;31;34262;-70
2022/11/09 11:32:13;;;;;;;;;;;;;;;9.76;100.00;100799.25;5590088;31;34871;-70
2022/11/09 11:35:44;;;;;;;;;;;;;;;9.50;100.00;100796.53;5590258;31;34178;-70
2022/11/09 11:39:11;;;;;;;;;;;;;;;9.66;100.00;100791.41;5590092;31;34961;-70
2022/11/09 11:42:47;;;;;;;;;;;;;;;9.63;100.00;100796.16;5575763;31;34000;-70
2022/11/09 11:46:23;;;;;;;;;;;;;;;9.60;100.00;100807.88;5590052;31;34724;-69
2022/11/09 11:49:44;;;;;;;;;;;;;;;9.51;100.00;100799.03;5590204;31;34336;-70
2022/11/09 11:53:16;;;;;;;;;;;;;;;9.35;100.00;100795.38;5590005;31;34237;-70
2022/11/09 11:56:42;;;;;;;;;;;;;;;9.35;100.00;100790.91;5578458;31;34300;-70
2022/11/09 12:00:12;;;;;;;;;;;;;;;9.44;100.00;100784.72;5590110;31;34856;-70
2022/11/09 12:03:45;;;;;;;;;;;;;;;9.51;100.00;100787.59;5576351;31;34783;-70
2022/11/09 12:07:25;;;;;;;;;;;;;;;9.57;100.00;100790.50;5578795;31;34291;-71
2022/11/09 12:10:48;;;;;;;;;;;;;;;9.64;100.00;100779.28;5589834;31;34239;-69
2022/11/09 12:14:23;;;;;;;;;;;;;;;9.65;100.00;100781.78;5590085;31;34229;-69
2022/11/09 12:17:46;;;;;;;;;;;;;;;9.68;100.00;100773.53;5578156;31;34646;-69
2022/11/09 12:21:16;;;;;;;;;;;;;;;9.68;100.00;100775.34;5589746;31;34756;-69
2022/11/09 12:24:54;;;;;;;;;;;;;;;9.74;100.00;100772.06;5554714;31;34456;-68
2022/11/09 12:28:15;;;;;;;;;;;;;;;9.62;100.00;100768.00;5589474;31;34687;-69
2022/11/09 12:31:48;;;;;;;;;;;;;;;9.58;100.00;100778.88;5589747;31;34237;-69
2022/11/09 12:35:15;;;;;;;;;;;;;;;9.44;100.00;100768.81;5589611;31;34453;-70
2022/11/09 12:38:46;;;;;;;;;;;;;;;9.54;100.00;100766.94;5578387;31;34841;-69
2022/11/09 12:42:12;;;;;;;;;;;;;;;9.68;100.00;100768.25;5588994;31;34308;-69
2022/11/09 12:45:34;;;;;;;;;;;;;;;9.60;100.00;100762.84;5590107;31;34274;-69
2022/11/09 12:48:58;;;;;;;;;;;;;;;9.56;100.00;100764.16;5577788;31;34720;-69
2022/11/09 12:52:25;;;;;;;;;;;;;;;9.65;100.00;100757.09;5589656;31;34361;-69
2022/11/09 12:55:46;;;;;;;;;;;;;;;9.70;100.00;100762.78;5575764;31;34106;-69
2022/11/09 12:59:33;;;;;;;;;;;;;;;9.58;100.00;100762.19;5589500;31;34739;-69
2022/11/09 13:02:55;;;;;;;;;;;;;;;9.62;100.00;100757.41;5575226;31;35510;-70
2022/11/09 13:06:19;;;;;;;;;;;;;;;9.62;100.00;100765.38;5577316;31;34780;-70
2022/11/09 13:09:40;;;;;;;;;;;;;;;9.67;100.00;100745.37;5589174;31;34453;-71
2022/11/09 13:13:05;;;;;;;;;;;;;;;9.72;100.00;100758.16;5589350;31;34308;-71
2022/11/09 13:16:31;;;;;;;;;;;;;;;9.75;100.00;100752.56;5564570;31;35104;-71
2022/11/09 13:19:53;;;;;;;;;;;;;;;9.69;100.00;100748.69;5588711;31;34481;-70
2022/11/09 13:23:27;;;;;;;;;;;;;;;9.70;100.00;100753.00;5575071;31;32838;-68
2022/11/09 13:27:28;;;;;;;;;;;;;;;9.60;100.00;100752.25;5589884;31;34366;-70
2022/11/09 13:30:49;;;;;;;;;;;;;;;9.47;100.00;100742.06;5575396;31;34034;-70
2022/11/09 13:34:29;;;;;;;;;;;;;;;9.55;100.00;100747.41;5563533;31;36485;-70
2022/11/09 13:37:55;;;;;;;;;;;;;;;9.54;100.00;100747.56;5588793;31;34284;-69
2022/11/09 13:41:28;;;;;;;;;;;;;;;9.55;100.00;100744.78;5588825;31;34256;-70
2022/11/09 13:44:49;;;;;;;;;;;;;;;9.50;100.00;100744.41;5574623;31;35466;-70
2022/11/09 13:48:28;;;;;;;;;;;;;;;9.44;100.00;100741.53;5589053;31;34207;-70
2022/11/09 13:51:49;;;;;;;;;;;;;;;9.48;100.00;100749.03;5574897;31;35419;-70
2022/11/09 13:55:22;;;;;;;;;;;;;;;9.47;100.00;100741.22;5590996;31;34538;-69
2022/11/09 13:58:44;;;;;;;;;;;;;;;9.33;100.00;100744.41;5591119;31;34150;-69
2022/11/09 14:02:17;;;;;;;;;;;;;;;9.40;100.00;100738.34;5590649;31;34322;-69
2022/11/09 14:05:40;;;;;;;;;;;;;;;9.31;100.00;100735.78;5576889;31;35074;-69
2022/11/09 14:09:01;;;;;;;;;;;;;;;9.38;100.00;100737.69;5590512;31;34274;-69
2022/11/09 14:12:23;;;;;;;;;;;;;;;9.34;100.00;100738.97;5576663;31;34461;-70
2022/11/09 14:15:52;;;;;;;;;;;;;;;9.28;100.00;100744.03;5565999;31;34443;-69
2022/11/09 14:19:26;;;;;;;;;;;;;;;9.35;100.00;100743.25;5590635;31;34397;-70
2022/11/09 14:22:47;;;;;;;;;;;;;;;9.34;100.00;100738.13;5554515;31;34939;-69
2022/11/09 14:26:14;;;;;;;;;;;;;;;9.26;100.00;100743.31;5576893;31;34832;-69
2022/11/09 14:29:52;;;;;;;;;;;;;;;9.21;100.00;100749.06;5590562;31;34307;-69
2022/11/09 14:33:20;;;;;;;;;;;;;;;9.22;100.00;100739.31;5579452;31;34379;-70
2022/11/09 14:36:41;;;;;;;;;;;;;;;9.17;100.00;100742.41;5590730;31;34769;-70
2022/11/09 14:40:03;;;;;;;;;;;;;;;9.18;100.00;100741.44;5578930;31;34872;-70
2022/11/09 14:43:24;;;;;;;;;;;;;;;9.26;100.00;100736.22;5576428;31;34636;-70
2022/11/09 14:46:50;;;;;;;;;;;;;;;9.23;100.00;100730.41;5590583;31;33833;-70
2022/11/09 14:50:34;;;;;;;;;;;;;;;9.18;100.00;100740.59;5590774;31;34278;-71
2022/11/09 14:53:56;;;;;;;;;;;;;;;9.10;100.00;100739.53;5578638;31;34533;-71
2022/11/09 14:57:17;;;;;;;;;;;;;;;9.05;100.00;100738.34;5590070;31;34324;-70
2022/11/09 15:00:38;;;;;;;;;;;;;;;9.05;100.00;100746.28;5590266;31;34952;-70
2022/11/09 15:04:08;;;;;;;;;;;;;;;9.01;100.00;100740.44;5589749;31;34351;-70
2022/11/09 15:07:31;;;;;;;;;;;;;;;9.08;100.00;100741.50;5590128;31;34822;-71
2022/11/09 15:10:52;;;;;;;;;;;;;;;9.04;100.00;100748.09;5590271;31;34982;-70
2022/11/09 15:14:21;;;;;;;;;;;;;;;8.98;100.00;100743.38;5589949;31;34985;-69
2022/11/09 15:17:44;;;;;;;;;;;;;;;8.96;100.00;100739.19;5589730;31;34900;-70
2022/11/09 15:21:30;;;;;;;;;;;;;;;9.01;100.00;100744.88;5576414;31;34968;-70
2022/11/09 15:24:51;;;;;;;;;;;;;;;8.94;100.00;100747.31;5575727;31;34970;-70
2022/11/09 15:28:12;;;;;;;;;;;;;;;9.08;100.00;100744.16;5590082;31;34446;-70
2022/11/09 15:31:33;;;;;;;;;;;;;;;9.08;100.00;100741.50;5590070;31;34765;-71
2022/11/09 15:34:56;;;;;;;;;;;;;;;9.00;100.00;100741.44;5590184;31;34882;-71
2022/11/09 15:38:30;;;;;;;;;;;;;;;8.98;100.00;100742.53;5575773;31;37231;-71
2022/11/09 15:41:51;;;;;;;;;;;;;;;8.97;100.00;100749.66;5576241;31;34439;-72
2022/11/09 15:45:13;;;;;;;;;;;;;;;9.04;100.00;100739.31;5590296;31;34059;-71
2022/11/09 15:48:35;;;;;;;;;;;;;;;8.98;100.00;100737.25;5589818;31;35027;-71
2022/11/09 15:51:56;;;;;;;;;;;;;;;8.96;100.00;100734.75;5578039;31;34730;-70
2022/11/09 15:55:20;;;;;;;;;;;;;;;8.99;100.00;100747.69;5589891;31;34226;-71
2022/11/09 15:58:42;;;;;;;;;;;;;;;9.04;100.00;100747.25;5589924;31;34855;-71
2022/11/09 16:02:03;;;;;;;;;;;;;;;9.01;100.00;100745.72;5589637;31;34434;-71
2022/11/09 16:05:26;;;;;;;;;;;;;;;8.98;100.00;100734.59;5589819;31;34257;-71
2022/11/09 16:08:48;;;;;;;;;;;;;;;9.07;100.00;100742.47;5589810;31;34177;-71
2022/11/09 16:12:09;;;;;;;;;;;;;;;9.00;100.00;100741.44;5589682;31;34581;-71
2022/11/09 16:15:30;;;;;;;;;;;;;;;8.97;100.00;100749.66;5575003;31;33620;-71
2022/11/09 16:18:52;;;;;;;;;;;;;;;9.06;100.00;100745.28;5576066;31;35698;-72
2022/11/09 16:22:14;;;;;;;;;;;;;;;9.01;100.00;100744.88;5576046;31;33580;-72
2022/11/09 16:25:37;;;;;;;;;;;;;;;8.96;100.00;100749.78;5589741;31;34870;-72
2022/11/09 16:29:00;;;;;;;;;;;;;;;9.03;100.00;100746.41;5578148;31;34303;-72
2022/11/09 16:32:22;;;;;;;;;;;;;;;9.00;100.00;100751.19;5589778;31;34175;-72